Cricklade, United Kingdom
Current Conditions -  °F | °C
As of 12:58 AM on Saturday 25 Oct 2014 (Local Time) from EGVA Reporting Station
Clear Clear  
Wind Chill: 44°   Ceiling: Unl
Heat Index: 44°   Visibility: 6mi
Dew Point: 44°   Wind: 3mph
Humidity: 97%   Direction: 230°SW
Pressure: 29.99"   Gusts: NA
Location:  51.64°N, 1.86°W
Report Text: EGVA 242358Z AUTO 23003KT 9999 CLR 07/07 A2999 RMK AO2 SLP160 T00690065 10125 20067 401600067 53008
Loading
Personal Weather Stations






























Interactive Weather Map
Tropical Storm Tracking
New forecast layout! Learn more

10-Day Weather Forecast

Advertisements
Track Severe Weather on mobile